Saint Regis, Montana
Current Conditions -  °F | °C
As of 4:53 PM on Saturday 25 Oct 2014 (Local Time) from KMLP Reporting Station
Overcast Overcast  
Wind Chill: 45°   Ceiling: 9000
Heat Index: 49°   Visibility: 10mi
Dew Point: 33°   Wind: 8mph
Humidity: 54%   Direction: 200°SSW
Pressure: 29.72"   Gusts: 20mph
Location:  47.3°N, 115.1°W
Report Text: KMLP 252253Z AUTO 20007G17KT 170V240 10SM OVC090 09/01 A2972 RMK AO2 SLP017 T00940006
Loading
Personal Weather Stations






























Interactive Weather Map
Tropical Storm Tracking
New forecast layout! Learn more

10-Day Weather Forecast

Advertisements
Track Severe Weather on mobile